createdAt,value
2018-04-15T00:01:27.851Z,8.40
2018-04-15T00:03:55.891Z,8.10
2018-04-15T00:06:23.965Z,7.90
2018-04-15T00:08:55.335Z,7.80
2018-04-15T00:11:24.108Z,7.40
2018-04-15T00:13:52.901Z,7.30
2018-04-15T00:16:20.923Z,7.30
2018-04-15T00:19:01.051Z,7.20
2018-04-15T00:21:29.982Z,7.20
2018-04-15T00:23:58.008Z,7.10
2018-04-15T00:26:26.034Z,7.00
2018-04-15T00:28:59.687Z,6.80
2018-04-15T00:31:27.717Z,6.80
2018-04-15T00:33:56.508Z,6.70
2018-04-15T00:36:26.316Z,6.80
2018-04-15T00:38:55.104Z,6.90
2018-04-15T00:41:23.885Z,6.90
2018-04-15T00:43:57.184Z,6.80
2018-04-15T00:46:27.175Z,6.80
2018-04-15T00:48:55.199Z,6.70
2018-04-15T00:51:24.135Z,6.60
2018-04-15T00:54:04.079Z,6.70
2018-04-15T00:56:32.116Z,6.70
2018-04-15T00:59:05.603Z,6.60
2018-04-15T01:01:37.516Z,6.50
2018-04-15T01:04:05.580Z,6.50
2018-04-15T01:06:34.502Z,6.50
2018-04-15T01:09:06.009Z,6.40
2018-04-15T01:11:38.077Z,6.40
2018-04-15T01:14:06.117Z,6.40
2018-04-15T01:16:35.078Z,6.40
2018-04-15T01:19:03.869Z,6.40
2018-04-15T01:21:32.660Z,6.30
2018-04-15T01:24:01.460Z,6.20
2018-04-15T01:26:31.444Z,6.20
2018-04-15T01:29:00.432Z,6.30
2018-04-15T01:31:28.468Z,6.40
2018-04-15T01:33:56.486Z,6.40
2018-04-15T01:36:29.453Z,6.30
2018-04-15T01:38:58.467Z,6.30
2018-04-15T01:41:27.254Z,6.20
2018-04-15T01:43:57.232Z,6.10
2018-04-15T01:46:27.273Z,6.10
2018-04-15T01:48:56.187Z,6.00
2018-04-15T01:51:25.148Z,6.00
2018-04-15T01:53:53.188Z,6.00
2018-04-15T01:56:23.974Z,6.20
2018-04-15T01:58:56.215Z,6.30
2018-04-15T02:01:26.139Z,6.30
2018-04-15T02:03:54.175Z,6.20
2018-04-15T02:06:24.124Z,6.10
2018-04-15T02:09:04.609Z,6.20
2018-04-15T02:11:40.012Z,6.10
2018-04-15T02:14:10.040Z,6.00
2018-04-15T02:16:46.005Z,5.90
2018-04-15T02:19:15.797Z,5.60
2018-04-15T02:21:43.805Z,5.60
2018-04-15T02:24:15.453Z,5.40
2018-04-15T02:26:44.233Z,5.20
2018-04-15T02:29:21.928Z,5.20
2018-04-15T02:31:51.728Z,5.20
2018-04-15T02:34:23.500Z,5.10
2018-04-15T02:36:59.914Z,5.40
2018-04-15T02:39:29.604Z,5.40
2018-04-15T02:41:59.525Z,5.30
2018-04-15T02:44:27.555Z,5.50
2018-04-15T02:46:57.345Z,5.60
2018-04-15T02:49:33.274Z,5.60
2018-04-15T02:52:02.201Z,5.50
2018-04-15T02:54:30.217Z,5.70
2018-04-15T02:57:09.469Z,5.70
2018-04-15T02:59:46.329Z,5.70
2018-04-15T03:02:19.466Z,5.60
2018-04-15T03:04:59.685Z,5.50
2018-04-15T03:07:39.685Z,5.40
2018-04-15T03:10:07.705Z,5.40
2018-04-15T03:12:41.597Z,5.40
2018-04-15T03:15:11.560Z,5.40
2018-04-15T03:17:48.004Z,5.20
2018-04-15T03:20:28.524Z,5.10
2018-04-15T03:23:04.232Z,5.10
2018-04-15T03:25:33.224Z,5.10
2018-04-15T03:28:02.236Z,5.00
2018-04-15T03:30:32.236Z,5.10
2018-04-15T03:33:05.492Z,5.10
2018-04-15T03:35:33.552Z,5.30
2018-04-15T03:38:01.576Z,5.50
2018-04-15T03:40:29.611Z,5.50
2018-04-15T03:42:58.668Z,5.60
2018-04-15T03:45:27.460Z,5.50
2018-04-15T03:47:58.883Z,5.50
2018-04-15T03:50:28.824Z,5.40
2018-04-15T03:53:04.101Z,5.30
2018-04-15T03:55:32.152Z,5.30
2018-04-15T03:58:04.668Z,5.20
2018-04-15T04:00:33.679Z,5.30
2018-04-15T04:03:03.684Z,5.30
2018-04-15T04:05:35.191Z,5.20
2018-04-15T04:08:03.235Z,5.10
2018-04-15T04:10:35.351Z,4.90
2018-04-15T04:13:04.260Z,4.80
2018-04-15T04:15:33.243Z,4.70
2018-04-15T04:18:13.187Z,4.70
2018-04-15T04:20:53.047Z,4.60
2018-04-15T04:23:32.907Z,4.50
2018-04-15T04:26:05.736Z,4.50
2018-04-15T04:28:39.692Z,4.40
2018-04-15T04:31:24.684Z,4.30
2018-04-15T04:33:52.723Z,4.40
2018-04-15T04:36:24.880Z,4.50
2018-04-15T04:38:53.811Z,4.60
2018-04-15T04:41:22.777Z,4.70
2018-04-15T04:43:54.080Z,4.80
2018-04-15T04:46:25.700Z,4.90
2018-04-15T04:48:59.523Z,4.90
2018-04-15T04:51:30.307Z,4.90
2018-04-15T04:53:58.323Z,4.90
2018-04-15T04:56:26.328Z,5.00
2018-04-15T04:58:59.211Z,5.00
2018-04-15T05:01:28.224Z,5.10
2018-04-15T05:03:57.219Z,5.10
2018-04-15T05:06:32.323Z,5.20
2018-04-15T05:09:05.231Z,5.20
2018-04-15T05:11:33.263Z,5.30
2018-04-15T05:14:03.216Z,5.40
2018-04-15T05:16:31.235Z,5.60
2018-04-15T05:19:04.415Z,5.80
2018-04-15T05:21:33.368Z,5.90
2018-04-15T05:24:03.407Z,6.00
2018-04-15T05:26:35.771Z,6.10
2018-04-15T05:29:11.615Z,6.10
2018-04-15T05:31:40.615Z,6.20
2018-04-15T05:34:13.972Z,6.40
2018-04-15T05:36:48.490Z,6.50
2018-04-15T05:39:19.196Z,6.80
2018-04-15T05:41:47.987Z,6.90
2018-04-15T05:44:16.011Z,6.90
2018-04-15T05:46:44.032Z,7.10
2018-04-15T05:49:17.483Z,7.50
2018-04-15T05:51:45.528Z,7.40
2018-04-15T05:54:13.552Z,7.70
2018-04-15T05:56:42.335Z,7.90
2018-04-15T05:59:12.311Z,7.90
2018-04-15T06:01:44.227Z,8.00
2018-04-15T06:04:13.184Z,8.20
2018-04-15T06:06:41.199Z,8.30
2018-04-15T06:09:09.215Z,8.40
2018-04-15T06:11:41.909Z,8.50
2018-04-15T06:14:09.931Z,8.60
2018-04-15T06:16:48.071Z,8.70
2018-04-15T06:19:16.971Z,8.80
2018-04-15T06:21:45.915Z,8.90
2018-04-15T06:24:18.441Z,8.90
2018-04-15T06:26:51.088Z,9.00
2018-04-15T06:29:23.219Z,9.20
2018-04-15T06:31:53.179Z,9.30
2018-04-15T06:34:21.220Z,9.40
2018-04-15T06:36:49.285Z,9.50
2018-04-15T06:39:18.211Z,9.70
2018-04-15T06:41:47.198Z,9.70
2018-04-15T06:44:15.227Z,9.90
2018-04-15T06:46:44.287Z,10.00
2018-04-15T06:49:15.865Z,10.20
2018-04-15T06:51:44.787Z,10.40
2018-04-15T06:54:12.838Z,10.60
2018-04-15T06:56:41.790Z,10.70
2018-04-15T06:59:11.714Z,10.70
2018-04-15T07:01:43.752Z,11.10
2018-04-15T07:04:11.798Z,11.10
2018-04-15T07:06:43.277Z,11.20
2018-04-15T07:09:12.274Z,11.50
2018-04-15T07:11:43.606Z,11.80
2018-04-15T07:14:15.478Z,12.10
2018-04-15T07:16:48.110Z,12.60
2018-04-15T07:19:21.778Z,12.90
2018-04-15T07:22:02.791Z,13.70
2018-04-15T07:24:32.759Z,13.60
2018-04-15T07:27:04.621Z,13.80
2018-04-15T07:29:32.671Z,14.20
2018-04-15T07:32:04.159Z,14.60
2018-04-15T07:34:45.462Z,14.90
2018-04-15T07:37:18.802Z,14.90
2018-04-15T07:39:46.822Z,15.10
2018-04-15T07:42:15.762Z,15.20
2018-04-15T07:44:43.786Z,15.10
2018-04-15T07:47:11.798Z,15.10
2018-04-15T07:49:41.719Z,15.20
2018-04-15T07:52:11.630Z,15.90
2018-04-15T07:54:41.543Z,16.60
2018-04-15T07:57:11.554Z,17.80
2018-04-15T07:59:45.101Z,18.30
2018-04-15T08:02:15.093Z,18.30
2018-04-15T08:04:46.838Z,18.20
2018-04-15T08:07:18.503Z,18.00
2018-04-15T08:09:51.147Z,18.00
2018-04-15T08:12:21.171Z,17.70
2018-04-15T08:14:51.096Z,17.80
2018-04-15T08:17:19.114Z,17.90
2018-04-15T08:19:47.130Z,17.80
2018-04-15T08:22:15.950Z,17.60
2018-04-15T08:24:59.142Z,16.70
2018-04-15T08:27:27.177Z,16.60
2018-04-15T08:29:55.194Z,16.50
2018-04-15T08:32:26.894Z,16.30
2018-04-15T08:34:57.598Z,15.90
2018-04-15T08:37:26.570Z,15.90
2018-04-15T08:39:54.566Z,15.80
2018-04-15T08:42:25.278Z,15.60
2018-04-15T08:44:53.830Z,15.60
2018-04-15T08:47:21.846Z,15.80
2018-04-15T08:49:51.634Z,16.20
2018-04-15T08:52:19.650Z,16.20
2018-04-15T08:54:47.658Z,16.30
2018-04-15T08:57:15.666Z,16.30
2018-04-15T08:59:50.091Z,17.00
2018-04-15T09:02:20.795Z,17.10
2018-04-15T09:04:49.690Z,17.10
2018-04-15T09:07:18.594Z,17.60
2018-04-15T09:09:53.125Z,17.80
2018-04-15T09:12:25.049Z,17.80
2018-04-15T09:14:58.781Z,17.80
2018-04-15T09:17:29.549Z,17.50
2018-04-15T09:19:59.505Z,17.50
2018-04-15T09:22:28.401Z,17.70
2018-04-15T09:24:56.441Z,17.70
2018-04-15T09:27:24.437Z,17.70
2018-04-15T09:29:52.461Z,17.80
2018-04-15T09:32:21.387Z,17.70
2018-04-15T09:34:51.409Z,17.60
2018-04-15T09:37:19.429Z,17.50
2018-04-15T09:39:52.764Z,17.10
2018-04-15T09:42:20.789Z,17.10
2018-04-15T09:44:55.348Z,17.10
2018-04-15T09:47:25.276Z,17.10
2018-04-15T09:49:53.284Z,17.20
2018-04-15T09:52:25.044Z,17.30
2018-04-15T09:54:54.959Z,17.40
2018-04-15T09:57:38.080Z,17.80
2018-04-15T10:00:13.687Z,17.80
2018-04-15T10:02:41.726Z,17.80
2018-04-15T10:05:14.595Z,17.80
2018-04-15T10:07:43.551Z,17.80
2018-04-15T10:10:12.963Z,18.00
2018-04-15T10:12:42.791Z,18.40
2018-04-15T10:15:20.715Z,18.40
2018-04-15T10:17:53.843Z,18.80
2018-04-15T10:20:35.112Z,18.70
2018-04-15T10:23:03.139Z,19.40
2018-04-15T10:25:33.107Z,19.60
2018-04-15T10:28:03.027Z,19.90
2018-04-15T10:30:43.588Z,20.40
2018-04-15T10:33:11.627Z,20.60
2018-04-15T10:35:40.676Z,21.30
2018-04-15T10:38:11.376Z,22.10
2018-04-15T10:40:39.388Z,22.10
2018-04-15T10:43:09.389Z,22.40
2018-04-15T10:45:46.409Z,24.00
2018-04-15T10:48:25.134Z,24.00
2018-04-15T10:50:54.157Z,24.90
2018-04-15T10:53:23.165Z,25.60
2018-04-15T10:55:51.213Z,25.70
2018-04-15T10:58:19.242Z,25.70
2018-04-15T11:00:47.245Z,25.70
2018-04-15T11:03:18.205Z,25.80
2018-04-15T11:05:46.237Z,25.50
2018-04-15T11:08:19.986Z,24.30
2018-04-15T11:10:59.493Z,26.20
2018-04-15T11:13:29.457Z,27.40
2018-04-15T11:15:58.237Z,28.50
2018-04-15T11:18:28.072Z,27.60
2018-04-15T11:21:02.530Z,27.60
2018-04-15T11:23:47.037Z,28.30
2018-04-15T11:26:15.833Z,28.00
2018-04-15T11:28:44.805Z,28.00
2018-04-15T11:31:13.605Z,28.10
2018-04-15T11:33:44.300Z,27.50
2018-04-15T11:36:15.449Z,27.50
2018-04-15T11:38:43.485Z,26.60
2018-04-15T11:41:21.601Z,26.10
2018-04-15T11:43:50.569Z,27.70
2018-04-15T11:46:18.605Z,28.00
2018-04-15T11:48:47.426Z,28.70
2018-04-15T11:51:16.352Z,28.70
2018-04-15T11:53:44.384Z,28.50
2018-04-15T11:56:13.368Z,27.80
2018-04-15T11:58:43.239Z,26.20
2018-04-15T12:01:11.295Z,26.10
2018-04-15T12:03:40.313Z,25.40
2018-04-15T12:06:08.356Z,24.30
2018-04-15T12:08:37.292Z,23.60
2018-04-15T12:11:06.072Z,23.10
2018-04-15T12:13:34.875Z,23.10
2018-04-15T12:16:04.848Z,23.10
2018-04-15T12:18:37.440Z,24.30
2018-04-15T12:21:11.897Z,24.90
2018-04-15T12:23:39.949Z,25.10
2018-04-15T12:26:08.753Z,24.70
2018-04-15T12:28:36.797Z,24.70
2018-04-15T12:31:07.525Z,23.90
2018-04-15T12:33:37.556Z,23.80
2018-04-15T12:36:07.597Z,23.60
2018-04-15T12:38:38.922Z,24.00
2018-04-15T12:41:10.974Z,24.00
2018-04-15T12:43:39.013Z,24.00
2018-04-15T12:46:08.033Z,24.50
2018-04-15T12:48:45.102Z,24.50
2018-04-15T12:51:13.183Z,24.20
2018-04-15T12:53:42.134Z,24.70
2018-04-15T12:56:11.094Z,24.90
2018-04-15T12:58:48.197Z,25.30
2018-04-15T13:01:20.729Z,25.30
2018-04-15T13:03:50.678Z,25.10
2018-04-15T13:06:20.585Z,24.40
2018-04-15T13:08:50.565Z,23.50
2018-04-15T13:11:19.545Z,23.60
2018-04-15T13:13:54.700Z,23.40
2018-04-15T13:16:24.693Z,23.30
2018-04-15T13:18:52.809Z,22.90
2018-04-15T13:21:22.725Z,22.40
2018-04-15T13:23:54.753Z,22.60
2018-04-15T13:26:23.877Z,22.40
2018-04-15T13:28:53.695Z,22.80
2018-04-15T13:31:21.669Z,22.80
2018-04-15T13:33:55.534Z,22.90
2018-04-15T13:36:27.085Z,23.90
2018-04-15T13:38:55.127Z,23.90
2018-04-15T13:41:26.416Z,23.90
2018-04-15T13:43:54.468Z,24.00
2018-04-15T13:46:24.484Z,24.00
2018-04-15T13:48:52.505Z,23.90
2018-04-15T13:51:24.133Z,23.70
2018-04-15T13:53:57.817Z,23.00
2018-04-15T13:56:37.301Z,23.00
2018-04-15T13:59:08.897Z,22.10
2018-04-15T14:01:43.286Z,22.10
2018-04-15T14:04:14.977Z,22.30
2018-04-15T14:06:49.377Z,22.20
2018-04-15T14:09:23.296Z,22.00
2018-04-15T14:11:51.372Z,21.80
2018-04-15T14:14:23.269Z,21.90
2018-04-15T14:16:58.645Z,22.20
2018-04-15T14:19:26.661Z,23.10
2018-04-15T14:21:56.576Z,24.30
2018-04-15T14:24:30.208Z,25.10
2018-04-15T14:27:01.918Z,26.10
2018-04-15T14:29:30.847Z,26.00
2018-04-15T14:32:01.509Z,25.60
2018-04-15T14:34:29.520Z,25.60
2018-04-15T14:36:58.421Z,25.50
2018-04-15T14:39:29.880Z,25.10
2018-04-15T14:42:02.732Z,24.70
2018-04-15T14:44:38.275Z,24.70
2018-04-15T14:47:22.868Z,24.20
2018-04-15T14:49:57.179Z,22.50
2018-04-15T14:52:26.074Z,22.50
2018-04-15T14:54:54.846Z,23.60
2018-04-15T14:57:42.200Z,23.60
2018-04-15T15:00:16.109Z,24.20
2018-04-15T15:02:44.120Z,24.50
2018-04-15T15:05:13.040Z,24.70
2018-04-15T15:07:47.864Z,24.30
2018-04-15T15:10:15.881Z,24.30
2018-04-15T15:12:50.237Z,24.00
2018-04-15T15:15:20.284Z,23.30
2018-04-15T15:17:49.064Z,22.20
2018-04-15T15:20:29.772Z,21.80
2018-04-15T15:23:01.977Z,21.80
2018-04-15T15:25:42.628Z,21.80
2018-04-15T15:28:16.594Z,21.60
2018-04-15T15:30:47.804Z,21.30
2018-04-15T15:33:16.780Z,21.20
2018-04-15T15:35:51.141Z,21.20
2018-04-15T15:38:24.296Z,21.40
2018-04-15T15:40:53.313Z,21.70
2018-04-15T15:43:23.088Z,21.80
2018-04-15T15:45:55.928Z,21.80
2018-04-15T15:48:28.592Z,21.40
2018-04-15T15:50:59.304Z,20.90
2018-04-15T15:53:28.236Z,20.80
2018-04-15T15:56:00.185Z,20.50
2018-04-15T15:58:32.716Z,20.40
2018-04-15T16:01:00.756Z,20.40
2018-04-15T16:03:28.822Z,20.50
2018-04-15T16:05:59.955Z,20.70
2018-04-15T16:08:31.941Z,20.70
2018-04-15T16:11:01.842Z,20.80
2018-04-15T16:13:30.797Z,20.50
2018-04-15T16:16:04.419Z,20.20
2018-04-15T16:18:32.443Z,20.30
2018-04-15T16:21:01.344Z,20.10
2018-04-15T16:23:29.391Z,19.90
2018-04-15T16:25:57.416Z,20.00
2018-04-15T16:28:30.272Z,20.00
2018-04-15T16:30:59.184Z,19.90
2018-04-15T16:33:28.860Z,19.70
2018-04-15T16:35:58.879Z,19.60
2018-04-15T16:38:26.891Z,19.40
2018-04-15T16:40:58.092Z,19.30
2018-04-15T16:43:27.007Z,19.20
2018-04-15T16:45:56.792Z,18.70
2018-04-15T16:48:45.537Z,18.70
2018-04-15T16:51:18.979Z,18.60
2018-04-15T16:53:47.923Z,18.60
2018-04-15T16:56:19.587Z,18.40
2018-04-15T16:58:47.603Z,18.30
2018-04-15T17:01:16.543Z,18.10
2018-04-15T17:03:45.780Z,17.90
2018-04-15T17:06:13.307Z,17.90
2018-04-15T17:08:41.335Z,17.80
2018-04-15T17:11:10.308Z,17.70
2018-04-15T17:13:39.251Z,17.60
2018-04-15T17:16:10.872Z,17.50
2018-04-15T17:18:40.814Z,17.40
2018-04-15T17:21:09.834Z,17.30
2018-04-15T17:23:39.870Z,17.20
2018-04-15T17:26:13.665Z,17.00
2018-04-15T17:28:42.630Z,17.00
2018-04-15T17:31:10.659Z,16.90
2018-04-15T17:33:38.677Z,16.70
2018-04-15T17:36:06.698Z,16.60
2018-04-15T17:38:38.614Z,16.50
2018-04-15T17:41:07.514Z,16.40
2018-04-15T17:43:39.376Z,16.20
2018-04-15T17:46:12.926Z,16.10
2018-04-15T17:48:47.769Z,16.10
2018-04-15T17:51:22.450Z,16.00
2018-04-15T17:53:51.411Z,16.00
2018-04-15T17:56:27.118Z,15.80
2018-04-15T17:58:55.211Z,15.80
2018-04-15T18:01:23.382Z,15.80
2018-04-15T18:03:52.778Z,15.70
2018-04-15T18:06:21.601Z,15.60
2018-04-15T18:08:57.878Z,15.60
2018-04-15T18:11:26.742Z,15.30
2018-04-15T18:14:06.542Z,15.30
2018-04-15T18:16:35.658Z,15.20
2018-04-15T18:19:05.613Z,15.20
2018-04-15T18:21:41.794Z,15.20
2018-04-15T18:24:10.765Z,15.20
2018-04-15T18:26:39.738Z,15.30
2018-04-15T18:29:09.906Z,15.30
2018-04-15T18:31:38.674Z,15.20
2018-04-15T18:34:07.471Z,15.10
2018-04-15T18:36:38.746Z,15.10
2018-04-15T18:41:49.595Z,15.10
2018-04-15T18:44:18.626Z,15.10
2018-04-15T18:46:48.675Z,15.10
2018-04-15T18:49:16.695Z,15.00
2018-04-15T18:51:45.739Z,15.00
2018-04-15T18:54:17.299Z,14.90
2018-04-15T18:56:48.943Z,14.80
2018-04-15T18:59:22.715Z,14.70
2018-04-15T19:01:55.320Z,14.60
2018-04-15T19:04:23.448Z,14.60
2018-04-15T19:06:52.395Z,14.50
2018-04-15T19:09:21.387Z,14.50
2018-04-15T19:11:49.439Z,14.60
2018-04-15T19:14:17.463Z,14.50
2018-04-15T19:16:47.772Z,14.50
2018-04-15T19:19:22.047Z,14.40
2018-04-15T19:21:52.088Z,14.30
2018-04-15T19:24:21.068Z,14.20
2018-04-15T19:26:52.335Z,14.10
2018-04-15T19:29:22.129Z,13.80
2018-04-15T19:31:51.123Z,13.70
2018-04-15T19:34:19.147Z,13.70
2018-04-15T19:36:47.160Z,13.60
2018-04-15T19:39:15.199Z,13.60
2018-04-15T19:41:43.248Z,13.60
2018-04-15T19:44:14.250Z,13.60
2018-04-15T19:46:42.276Z,13.60
2018-04-15T19:49:17.898Z,13.70
2018-04-15T19:51:47.950Z,13.70
2018-04-15T19:54:19.338Z,13.80
2018-04-15T19:56:48.847Z,13.80
2018-04-15T19:59:22.521Z,14.00
2018-04-15T20:01:51.523Z,14.00
2018-04-15T20:04:19.584Z,13.90
2018-04-15T20:06:47.586Z,13.90
2018-04-15T20:09:21.171Z,13.70
2018-04-15T20:11:50.145Z,13.60
2018-04-15T20:14:19.193Z,13.50
2018-04-15T20:16:50.171Z,13.40
2018-04-15T20:19:19.095Z,13.40
2018-04-15T20:21:47.118Z,13.30
2018-04-15T20:24:15.138Z,13.40
2018-04-15T20:26:45.855Z,13.40
2018-04-15T20:29:14.835Z,13.30
2018-04-15T20:31:46.667Z,13.40
2018-04-15T20:34:14.886Z,13.40
2018-04-15T20:36:49.546Z,13.40
2018-04-15T20:39:19.847Z,13.40
2018-04-15T20:41:48.655Z,13.50
2018-04-15T20:44:17.458Z,13.50
2018-04-15T20:46:46.395Z,13.50
2018-04-15T20:49:14.426Z,13.50
2018-04-15T20:51:43.454Z,13.60
2018-04-15T20:54:13.478Z,13.70
2018-04-15T20:56:42.462Z,13.70
2018-04-15T20:59:16.963Z,13.70
2018-04-15T21:01:47.003Z,13.80
2018-04-15T21:04:15.962Z,13.80
2018-04-15T21:06:49.490Z,13.90
2018-04-15T21:09:22.090Z,13.90
2018-04-15T21:11:54.795Z,14.00
2018-04-15T21:14:24.087Z,13.90
2018-04-15T21:20:20.162Z,14.00
2018-04-15T21:22:57.637Z,14.10
2018-04-15T21:25:26.866Z,14.10
2018-04-15T21:27:56.074Z,14.20
2018-04-15T21:30:24.082Z,14.20
2018-04-15T21:32:54.059Z,14.30
2018-04-15T21:35:29.558Z,14.30
2018-04-15T21:37:58.066Z,14.30
2018-04-15T21:40:32.970Z,14.20
2018-04-15T21:43:07.740Z,14.30
2018-04-15T21:45:43.398Z,14.30
2018-04-15T21:48:18.066Z,14.20
2018-04-15T21:50:48.082Z,14.20
2018-04-15T21:53:21.345Z,14.20
2018-04-15T21:55:54.017Z,14.20
2018-04-15T21:58:22.037Z,14.20
2018-04-15T22:00:56.294Z,14.20
2018-04-15T22:03:29.109Z,14.20
2018-04-15T22:05:59.865Z,14.10
2018-04-15T22:08:27.942Z,14.10
2018-04-15T22:11:00.065Z,14.10
2018-04-15T22:13:28.877Z,14.00
2018-04-15T22:16:01.333Z,14.00
2018-04-15T22:18:36.989Z,14.10
2018-04-15T22:21:05.077Z,14.10
2018-04-15T22:23:37.105Z,14.10
2018-04-15T22:26:07.137Z,14.10
2018-04-15T22:28:36.825Z,14.20
2018-04-15T22:31:06.749Z,14.10
2018-04-15T22:33:35.533Z,14.00
2018-04-15T22:36:04.493Z,14.00
2018-04-15T22:38:33.510Z,13.90
2018-04-15T22:41:01.530Z,13.90
2018-04-15T22:43:30.170Z,13.90
2018-04-15T22:45:58.210Z,13.80
2018-04-15T22:48:33.770Z,13.90
2018-04-15T22:51:02.757Z,13.80
2018-04-15T22:53:34.146Z,13.70
2018-04-15T22:56:09.707Z,13.50
2018-04-15T22:58:43.353Z,13.50
2018-04-15T23:01:15.105Z,13.40
2018-04-15T23:03:43.141Z,13.30
2018-04-15T23:06:11.169Z,13.10
2018-04-15T23:08:41.077Z,12.90
2018-04-15T23:11:12.710Z,12.80
2018-04-15T23:13:40.758Z,12.70
2018-04-15T23:16:19.688Z,12.60
2018-04-15T23:18:51.633Z,12.60
2018-04-15T23:21:20.601Z,12.50
2018-04-15T23:23:51.270Z,12.40
2018-04-15T23:26:20.294Z,12.40
2018-04-15T23:28:49.282Z,12.40
2018-04-15T23:31:18.290Z,12.30
2018-04-15T23:33:46.306Z,12.30
2018-04-15T23:36:14.318Z,12.30
2018-04-15T23:38:45.118Z,12.20
2018-04-15T23:41:13.148Z,12.10
2018-04-15T23:43:43.829Z,12.10
2018-04-15T23:46:11.870Z,12.10
2018-04-15T23:48:40.818Z,12.00
2018-04-15T23:51:13.596Z,12.00
2018-04-15T23:53:41.623Z,12.00
2018-04-15T23:56:13.938Z,12.00
2018-04-15T23:58:47.430Z,12.00
